Stations météo

réclame
Mon MeteoGroup
Grazalema, Espagne (8455): Température de l'air & dewpoint: 18.01.2018 10:00:00 - 24.01.2018 10:00:00 (CET)Grazalema, Espagne (8455): Vitesse du vent & gusts: 18.01.2018 10:00:00 - 24.01.2018 10:00:00 (CET)Grazalema, Espagne (8455): Direction du vent: 18.01.2018 10:00:00 - 24.01.2018 10:00:00 (CET)Grazalema, Espagne (8455): Quantités de précipitations: 18.01.2018 10:00:00 - 24.01.2018 10:00:00 (CET)
Date & Time tt [°C] td [°C] ff [km/h] ff [knt] fx [km/h] fx [knt] dd rr [mm]
24.01.2018 10:00:00 9,6 2,9 4 2 10 5 W 0,0
24.01.2018 09:00:00 6,8 0,4 7 4 13 7 W 0,0
24.01.2018 08:00:00 6,0 -0,3 9 5 13 7 W 0,0
24.01.2018 07:00:00 5,8 -0,7 8 5 13 7 W -
24.01.2018 06:00:00 6,0 -0,7 8 5 13 7 W 0,0
24.01.2018 05:00:00 6,2 -0,7 8 4 12 6 W 0,0
24.01.2018 04:00:00 6,4 -0,7 8 5 14 8 W 0,0
24.01.2018 03:00:00 7,0 0,0 8 4 16 8 W 0,0
24.01.2018 02:00:00 7,4 0,6 9 5 16 9 W 0,0
24.01.2018 01:00:00 7,7 1,3 10 5 14 8 W -
24.01.2018 00:00:00 7,3 3,0 9 5 13 7 W 0,0
23.01.2018 23:00:00 7,6 4,1 8 4 13 7 W 0,0
23.01.2018 22:00:00 8,3 4,8 9 5 13 7 W 0,0
23.01.2018 21:00:00 7,9 4,3 7 4 13 7 W 0,0
23.01.2018 20:00:00 8,1 4,1 9 5 13 7 W 0,0
23.01.2018 19:00:00 8,7 4,5 8 4 11 6 W -
23.01.2018 18:00:00 10,7 4,6 5 3 8 5 W 0,0
23.01.2018 17:00:00 12,9 4,6 1 1 5 3 SSE 0,0
23.01.2018 16:00:00 14,3 4,3 3 1 7 4 SSE 0,0
23.01.2018 15:00:00 18,1 5,3 5 3 8 5 ENE 0,0
23.01.2018 14:00:00 18,5 5,3 4 2 8 4 E 0,0
23.01.2018 13:00:00 18,5 4,6 3 2 7 4 ENE -
23.01.2018 12:00:00 17,8 2,9 3 2 6 3 E 0,0
23.01.2018 11:00:00 14,9 3,4 1 1 8 4 SW 0,0
23.01.2018 10:00:00 11,4 1,9 5 3 14 8 W 0,0
23.01.2018 09:00:00 8,0 -0,7 8 4 15 8 W 0,0
23.01.2018 08:00:00 6,4 -2,2 10 5 14 8 W 0,0
23.01.2018 07:00:00 6,1 -2,0 8 4 14 8 W -
23.01.2018 06:00:00 6,0 -2,2 7 4 13 7 W 0,0
23.01.2018 05:00:00 5,8 -2,0 7 4 11 6 W 0,0
23.01.2018 04:00:00 5,9 -1,4 8 4 12 7 W 0,0
23.01.2018 03:00:00 5,6 -1,0 6 3 13 7 W 0,0
23.01.2018 02:00:00 5,3 0,6 9 5 13 7 W 0,0
23.01.2018 01:00:00 5,1 0,9 6 3 12 6 W -
23.01.2018 00:00:00 5,2 0,2 6 3 12 7 WSW 0,0
22.01.2018 23:00:00 6,1 0,6 7 4 10 6 W 0,0
22.01.2018 22:00:00 6,2 1,1 6 4 13 7 W 0,0
22.01.2018 21:00:00 6,5 2,3 7 4 11 6 W 0,0
22.01.2018 20:00:00 7,0 2,9 8 4 12 6 W 0,0
22.01.2018 19:00:00 7,9 3,6 8 4 11 6 W -
22.01.2018 18:00:00 10,7 4,6 4 2 8 5 W 0,0
22.01.2018 17:00:00 12,5 5,5 2 1 6 3 S 0,0
22.01.2018 16:00:00 16,2 5,5 4 2 9 5 ESE 0,0
22.01.2018 15:00:00 17,0 6,2 5 3 11 6 E 0,0
22.01.2018 14:00:00 17,6 6,4 5 3 11 6 E 0,0
22.01.2018 13:00:00 16,6 5,5 5 3 9 5 ENE -
22.01.2018 12:00:00 16,3 5,6 5 3 9 5 E 0,0
22.01.2018 11:00:00 14,5 6,5 1 0 5 3 SSE 0,0
22.01.2018 10:00:00 10,0 5,9 3 2 9 5 SW 0,0
22.01.2018 09:00:00 6,7 4,1 7 4 12 7 W 0,0
22.01.2018 08:00:00 5,4 2,9 7 4 14 7 W 0,0
22.01.2018 07:00:00 5,3 2,9 7 4 12 6 WSW -
22.01.2018 06:00:00 5,5 2,9 6 3 11 6 W 0,0
22.01.2018 05:00:00 6,1 3,0 7 4 13 7 W 0,0
22.01.2018 04:00:00 5,4 3,0 7 4 13 7 W 0,0
22.01.2018 03:00:00 5,3 3,0 7 4 13 7 W 0,0
22.01.2018 02:00:00 5,9 4,1 5 3 11 6 W 0,0
22.01.2018 01:00:00 5,3 4,1 9 5 13 7 W -
22.01.2018 00:00:00 5,2 3,9 5 3 11 6 WSW 0,0
21.01.2018 23:00:00 5,6 4,1 5 3 12 7 W 0,0
21.01.2018 22:00:00 6,4 4,1 8 4 12 6 W 0,0
21.01.2018 21:00:00 6,9 4,5 7 4 10 5 W 0,0
21.01.2018 20:00:00 6,7 3,8 5 3 12 7 W 0,0
21.01.2018 19:00:00 7,1 4,3 2 1 10 6 W -
21.01.2018 18:00:00 9,0 6,1 4 2 8 4 W 0,0
21.01.2018 17:00:00 10,8 6,4 0 0 7 4 ESE 0,0
21.01.2018 16:00:00 12,7 6,5 3 1 11 6 ESE 0,0
21.01.2018 15:00:00 14,6 6,7 4 2 11 6 ENE 0,0
21.01.2018 14:00:00 14,5 6,4 5 3 11 6 ENE 0,0
21.01.2018 13:00:00 13,8 5,5 7 4 14 7 ENE -
21.01.2018 12:00:00 13,3 4,5 4 2 11 6 E 0,0
21.01.2018 11:00:00 13,0 3,4 5 3 9 5 E 0,0
21.01.2018 10:00:00 13,0 3,0 2 1 8 4 ENE 0,0
21.01.2018 09:00:00 11,4 2,5 1 1 16 9 NNW 0,0
21.01.2018 08:00:00 10,6 1,7 6 3 16 8 WNW 0,0
21.01.2018 07:00:00 8,4 -0,5 2 1 14 7 ENE -
21.01.2018 06:00:00 9,0 -0,3 2 1 21 11 NNE 0,0
21.01.2018 05:00:00 9,1 -0,5 3 1 11 6 NE 0,0
21.01.2018 04:00:00 9,3 -0,3 1 1 10 5 NE 0,0
21.01.2018 03:00:00 9,6 -0,7 5 3 24 13 NW 0,0
21.01.2018 02:00:00 10,6 -3,9 5 3 21 12 WNW 0,0
21.01.2018 01:00:00 - - - - - - - -
21.01.2018 00:00:00 11,4 -3,3 8 4 31 17 W 0,0
20.01.2018 23:00:00 10,6 -1,4 12 7 29 15 W 0,0
20.01.2018 22:00:00 10,9 0,2 11 6 28 15 W 0,0
20.01.2018 21:00:00 9,9 -1,7 10 5 23 12 W 0,0
20.01.2018 20:00:00 11,3 -3,0 8 4 23 12 W 0,0
20.01.2018 19:00:00 11,4 -3,9 6 3 16 9 WSW -
20.01.2018 18:00:00 12,8 -3,0 9 5 23 12 WSW 0,0
20.01.2018 17:00:00 13,3 -2,0 5 3 21 12 W 0,0
20.01.2018 16:00:00 14,0 -0,5 8 5 25 14 W 0,0
20.01.2018 15:00:00 15,0 0,9 3 2 21 11 W 0,0
20.01.2018 14:00:00 15,2 2,3 1 1 22 12 ENE 0,0
20.01.2018 13:00:00 14,3 4,3 2 1 14 7 E -
20.01.2018 12:00:00 11,6 5,3 5 3 24 13 NE 0,0
20.01.2018 11:00:00 9,9 4,3 3 1 8 4 ENE 0,0
20.01.2018 10:00:00 7,8 2,7 4 2 9 5 NE 0,0
20.01.2018 09:00:00 7,6 2,5 1 1 9 5 ENE 0,0
20.01.2018 08:00:00 8,6 -0,3 3 2 21 11 NNW 0,0
20.01.2018 07:00:00 8,6 -1,0 7 4 14 8 W -
20.01.2018 06:00:00 6,8 0,6 3 2 9 5 W 0,0
20.01.2018 05:00:00 6,7 0,9 3 1 10 5 W 0,0
20.01.2018 04:00:00 4,9 1,5 6 4 13 7 W 0,0
20.01.2018 03:00:00 4,9 1,9 6 4 10 6 W 0,0
20.01.2018 02:00:00 6,4 3,0 5 3 12 6 W 0,0
20.01.2018 01:00:00 - - - - - - - -
20.01.2018 00:00:00 6,3 2,7 6 4 9 5 W 0,0
19.01.2018 23:00:00 8,2 3,0 4 2 13 7 W 0,0
19.01.2018 22:00:00 9,4 2,3 3 2 11 6 WSW 0,0
19.01.2018 21:00:00 7,1 1,9 3 2 10 6 W 0,0
19.01.2018 20:00:00 5,3 1,5 6 4 13 7 W 0,0
19.01.2018 19:00:00 6,0 3,4 6 4 12 6 W -
19.01.2018 18:00:00 7,5 4,8 3 1 5 3 WSW 0,0
19.01.2018 17:00:00 10,2 5,8 1 1 10 5 E 0,0
19.01.2018 16:00:00 11,0 5,3 6 3 15 8 SW 0,0
19.01.2018 15:00:00 12,9 5,8 5 3 14 7 WSW 0,0
19.01.2018 14:00:00 13,7 5,3 6 3 10 6 E 0,0
19.01.2018 13:00:00 12,9 4,6 4 2 8 4 E -
19.01.2018 12:00:00 11,3 4,1 1 1 5 3 NE 0,0
19.01.2018 11:00:00 8,7 4,5 1 0 6 4 E 0,0
19.01.2018 10:00:00 7,1 3,2 3 1 9 5 W 0,0
19.01.2018 09:00:00 6,1 2,1 5 3 11 6 W 0,0
19.01.2018 08:00:00 5,8 1,9 9 5 13 7 W 0,0
19.01.2018 07:00:00 5,4 1,5 4 2 8 5 W -
19.01.2018 06:00:00 5,9 1,7 4 2 11 6 W 0,0
19.01.2018 05:00:00 6,2 1,5 5 3 11 6 W 0,0
19.01.2018 04:00:00 6,4 1,7 7 4 11 6 W 0,0
19.01.2018 03:00:00 6,0 1,3 6 3 11 6 WSW 0,0
19.01.2018 02:00:00 6,0 1,3 6 3 10 6 W 0,0
19.01.2018 01:00:00 6,3 1,3 7 4 10 6 W -
19.01.2018 00:00:00 6,4 0,6 6 4 10 6 W 0,0
18.01.2018 23:00:00 7,0 0,9 8 4 11 6 W 0,0
18.01.2018 22:00:00 7,4 0,9 6 3 10 5 W 0,0
18.01.2018 21:00:00 7,6 0,4 4 2 11 6 W 0,0
18.01.2018 20:00:00 7,5 -0,7 6 3 11 6 W 0,0
18.01.2018 19:00:00 9,6 0,0 4 2 14 8 WNW -
18.01.2018 18:00:00 9,6 2,3 4 2 10 5 W 0,0
18.01.2018 17:00:00 11,4 2,5 3 2 11 6 NE 0,0
18.01.2018 16:00:00 11,9 2,9 8 4 20 11 NE 0,0
18.01.2018 15:00:00 11,6 2,3 8 4 16 9 NE 0,0
18.01.2018 14:00:00 11,9 2,1 4 2 23 12 NNE 0,0
18.01.2018 13:00:00 12,1 2,3 4 2 17 9 ENE -
18.01.2018 12:00:00 12,3 2,5 7 4 17 9 NE 0,0
18.01.2018 11:00:00 11,8 1,7 6 3 19 10 NE 0,0
18.01.2018 10:00:00 10,6 0,6 4 2 22 12 SE 0,0

tt = Température de l'air
td = dewpoint
ff = Vitesse du vent
fx = gusts
dd = Direction du vent
rr = Quantités de précipitations

stations d'obs. à proximité